createdAt,value
2017-09-03T00:00:43.340Z,87.25
2017-09-03T00:01:43.303Z,87.54
2017-09-03T00:02:43.269Z,87.54
2017-09-03T00:03:43.236Z,87.68
2017-09-03T00:04:43.194Z,88.07
2017-09-03T00:05:43.185Z,87.30
2017-09-03T00:06:43.125Z,88.07
2017-09-03T00:07:43.107Z,87.59
2017-09-03T00:08:43.070Z,87.54
2017-09-03T00:09:43.021Z,87.06
2017-09-03T00:10:42.994Z,87.02
2017-09-03T00:11:42.994Z,87.54
2017-09-03T00:12:42.919Z,87.73
2017-09-03T00:13:42.899Z,87.06
2017-09-03T00:14:42.915Z,86.77
2017-09-03T00:15:42.813Z,86.96
2017-09-03T00:16:42.772Z,87.49
2017-09-03T00:17:42.744Z,87.68
2017-09-03T00:18:42.712Z,87.49
2017-09-03T00:19:42.674Z,87.54
2017-09-03T00:20:42.641Z,87.40
2017-09-03T00:21:42.600Z,87.40
2017-09-03T00:22:42.563Z,87.30
2017-09-03T00:23:42.543Z,87.02
2017-09-03T00:24:42.500Z,87.68
2017-09-03T00:25:42.458Z,87.35
2017-09-03T00:26:42.430Z,87.49
2017-09-03T00:27:42.401Z,88.07
2017-09-03T00:28:42.354Z,87.87
2017-09-03T00:29:42.320Z,88.07
2017-09-03T00:30:42.281Z,87.87
2017-09-03T00:31:42.253Z,87.87
2017-09-03T00:32:42.221Z,87.97
2017-09-03T00:33:42.182Z,88.45
2017-09-03T00:34:42.151Z,88.07
2017-09-03T00:35:42.108Z,87.78
2017-09-03T00:36:42.070Z,88.26
2017-09-03T00:37:42.040Z,88.07
2017-09-03T00:38:42.007Z,88.07
2017-09-03T00:39:41.966Z,88.26
2017-09-03T00:40:41.934Z,88.35
2017-09-03T00:41:41.909Z,88.45
2017-09-03T00:42:41.871Z,88.01
2017-09-03T00:43:41.829Z,88.45
2017-09-03T00:44:41.789Z,88.20
2017-09-03T00:45:41.768Z,87.87
2017-09-03T00:46:41.719Z,88.07
2017-09-03T00:47:41.690Z,87.54
2017-09-03T00:48:41.655Z,88.45
2017-09-03T00:49:41.615Z,88.73
2017-09-03T00:50:41.579Z,88.54
2017-09-03T00:51:41.553Z,88.45
2017-09-03T00:52:41.512Z,88.35
2017-09-03T00:53:41.481Z,88.64
2017-09-03T00:54:41.438Z,88.83
2017-09-03T00:55:41.410Z,88.64
2017-09-03T00:56:41.372Z,88.64
2017-09-03T00:57:41.340Z,88.83
2017-09-03T00:58:41.301Z,88.54
2017-09-03T00:59:41.266Z,88.16
2017-09-03T01:00:41.229Z,88.73
2017-09-03T01:01:41.211Z,88.64
2017-09-03T01:02:41.155Z,89.31
2017-09-03T01:03:41.148Z,88.26
2017-09-03T01:04:41.099Z,88.64
2017-09-03T01:05:41.054Z,88.54
2017-09-03T01:06:41.020Z,88.64
2017-09-03T01:07:40.981Z,88.07
2017-09-03T01:08:40.947Z,88.07
2017-09-03T01:09:40.908Z,88.16
2017-09-03T01:10:40.880Z,88.35
2017-09-03T01:11:40.847Z,88.26
2017-09-03T01:12:40.806Z,88.45
2017-09-03T01:13:40.777Z,88.45
2017-09-03T01:14:40.739Z,88.54
2017-09-03T01:15:40.706Z,88.54
2017-09-03T01:16:40.670Z,88.07
2017-09-03T01:17:40.652Z,88.16
2017-09-03T01:18:40.596Z,88.26
2017-09-03T01:19:40.561Z,88.35
2017-09-03T01:20:40.522Z,88.54
2017-09-03T01:21:40.487Z,88.26
2017-09-03T01:22:40.459Z,88.07
2017-09-03T01:23:40.418Z,88.45
2017-09-03T01:24:40.393Z,88.54
2017-09-03T01:25:40.346Z,87.97
2017-09-03T01:26:40.318Z,87.93
2017-09-03T01:27:40.282Z,88.54
2017-09-03T01:28:40.353Z,88.45
2017-09-03T01:29:40.265Z,88.35
2017-09-03T01:30:40.169Z,88.45
2017-09-03T01:31:40.195Z,88.07
2017-09-03T01:32:40.097Z,87.49
2017-09-03T01:33:40.070Z,87.49
2017-09-03T01:34:40.034Z,87.11
2017-09-03T01:35:39.998Z,87.40
2017-09-03T01:36:39.976Z,87.54
2017-09-03T01:37:39.929Z,88.02
2017-09-03T01:38:39.890Z,88.50
2017-09-03T01:39:39.859Z,88.59
2017-09-03T01:40:39.817Z,88.59
2017-09-03T01:41:39.783Z,88.40
2017-09-03T01:42:39.748Z,88.31
2017-09-03T01:43:39.715Z,88.50
2017-09-03T01:44:39.675Z,88.59
2017-09-03T01:45:39.641Z,89.26
2017-09-03T01:46:39.609Z,88.40
2017-09-03T01:47:39.569Z,88.50
2017-09-03T01:48:39.548Z,88.21
2017-09-03T01:49:39.500Z,88.31
2017-09-03T01:50:39.464Z,88.21
2017-09-03T01:51:39.424Z,88.50
2017-09-03T01:52:39.398Z,88.12
2017-09-03T01:53:39.359Z,88.50
2017-09-03T01:54:39.320Z,88.31
2017-09-03T01:55:39.288Z,88.02
2017-09-03T01:56:39.254Z,88.40
2017-09-03T01:57:39.214Z,88.12
2017-09-03T01:58:39.182Z,88.50
2017-09-03T01:59:39.152Z,88.21
2017-09-03T02:00:39.117Z,88.59
2017-09-03T02:01:39.083Z,88.12
2017-09-03T02:02:39.048Z,88.50
2017-09-03T02:03:39.016Z,88.21
2017-09-03T02:04:38.971Z,88.31
2017-09-03T02:05:38.938Z,87.83
2017-09-03T02:06:38.895Z,88.21
2017-09-03T02:07:38.860Z,88.50
2017-09-03T02:08:38.824Z,88.21
2017-09-03T02:09:38.794Z,88.78
2017-09-03T02:10:38.756Z,89.26
2017-09-03T02:11:38.739Z,88.98
2017-09-03T02:12:38.685Z,88.69
2017-09-03T02:13:38.651Z,88.69
2017-09-03T02:14:38.621Z,88.59
2017-09-03T02:15:38.582Z,88.78
2017-09-03T02:16:38.548Z,88.50
2017-09-03T02:17:38.512Z,88.45
2017-09-03T02:18:38.468Z,88.16
2017-09-03T02:19:38.438Z,88.45
2017-09-03T02:20:38.398Z,87.30
2017-09-03T02:21:38.370Z,87.68
2017-09-03T02:22:38.332Z,88.26
2017-09-03T02:23:38.305Z,88.02
2017-09-03T02:24:38.275Z,88.07
2017-09-03T02:25:38.225Z,87.83
2017-09-03T02:26:38.192Z,88.50
2017-09-03T02:27:38.152Z,88.12
2017-09-03T02:28:38.121Z,88.59
2017-09-03T02:29:38.092Z,88.69
2017-09-03T02:30:38.049Z,88.40
2017-09-03T02:31:38.015Z,88.21
2017-09-03T02:32:37.979Z,88.40
2017-09-03T02:33:37.942Z,87.93
2017-09-03T02:34:37.910Z,88.02
2017-09-03T02:35:37.870Z,87.93
2017-09-03T02:36:37.834Z,87.83
2017-09-03T02:37:37.795Z,87.83
2017-09-03T02:38:37.764Z,87.45
2017-09-03T02:39:37.730Z,87.26
2017-09-03T02:40:37.691Z,87.74
2017-09-03T02:41:37.666Z,88.31
2017-09-03T02:42:37.620Z,88.21
2017-09-03T02:43:37.584Z,88.31
2017-09-03T02:44:37.549Z,88.21
2017-09-03T02:45:37.514Z,88.40
2017-09-03T02:46:37.476Z,88.12
2017-09-03T02:47:37.448Z,87.45
2017-09-03T02:48:37.413Z,87.54
2017-09-03T02:49:37.380Z,87.64
2017-09-03T02:50:37.335Z,87.45
2017-09-03T02:51:37.324Z,87.16
2017-09-03T02:52:37.264Z,87.64
2017-09-03T02:53:37.233Z,87.45
2017-09-03T02:54:37.202Z,87.26
2017-09-03T02:55:37.161Z,87.26
2017-09-03T02:56:37.130Z,87.26
2017-09-03T02:57:37.115Z,86.78
2017-09-03T02:58:37.053Z,87.26
2017-09-03T02:59:37.023Z,86.49
2017-09-03T03:00:36.976Z,86.59
2017-09-03T03:01:36.949Z,86.54
2017-09-03T03:02:36.916Z,86.35
2017-09-03T03:03:36.879Z,86.35
2017-09-03T03:04:36.845Z,86.25
2017-09-03T03:05:36.804Z,86.63
2017-09-03T03:06:36.767Z,86.92
2017-09-03T03:07:36.729Z,87.11
2017-09-03T03:08:36.700Z,87.21
2017-09-03T03:09:36.664Z,86.92
2017-09-03T03:10:36.630Z,87.35
2017-09-03T03:11:36.592Z,87.49
2017-09-03T03:12:36.557Z,88.02
2017-09-03T03:13:36.545Z,87.54
2017-09-03T03:14:36.492Z,87.35
2017-09-03T03:15:36.452Z,87.54
2017-09-03T03:16:36.411Z,88.12
2017-09-03T03:17:36.379Z,88.31
2017-09-03T03:18:36.343Z,88.40
2017-09-03T03:19:36.312Z,87.93
2017-09-03T03:20:36.274Z,87.83
2017-09-03T03:21:36.242Z,88.31
2017-09-03T03:22:36.209Z,88.12
2017-09-03T03:23:36.169Z,88.31
2017-09-03T03:24:36.132Z,88.78
2017-09-03T03:25:36.099Z,88.50
2017-09-03T03:26:36.058Z,88.59
2017-09-03T03:27:36.024Z,88.40
2017-09-03T03:28:35.986Z,88.50
2017-09-03T03:29:35.951Z,88.50
2017-09-03T03:30:35.913Z,88.40
2017-09-03T03:31:35.935Z,88.31
2017-09-03T03:32:35.847Z,88.50
2017-09-03T03:33:35.818Z,88.02
2017-09-03T03:34:35.771Z,88.12
2017-09-03T03:35:35.740Z,87.83
2017-09-03T03:36:35.699Z,87.64
2017-09-03T03:37:35.668Z,87.35
2017-09-03T03:38:35.628Z,87.35
2017-09-03T03:39:35.598Z,87.26
2017-09-03T03:40:35.559Z,87.45
2017-09-03T03:41:35.533Z,87.16
2017-09-03T03:42:35.490Z,86.69
2017-09-03T03:43:35.450Z,86.78
2017-09-03T03:44:35.424Z,86.78
2017-09-03T03:45:35.389Z,86.69
2017-09-03T03:46:35.346Z,86.88
2017-09-03T03:47:35.313Z,86.69
2017-09-03T03:48:35.281Z,86.69
2017-09-03T03:49:35.249Z,86.88
2017-09-03T03:50:35.208Z,86.69
2017-09-03T03:51:35.168Z,87.64
2017-09-03T03:52:35.131Z,87.45
2017-09-03T03:53:35.105Z,88.02
2017-09-03T03:54:35.084Z,88.02
2017-09-03T03:55:35.032Z,88.02
2017-09-03T03:56:34.987Z,87.83
2017-09-03T03:57:34.965Z,87.93
2017-09-03T03:58:34.920Z,87.83
2017-09-03T03:59:34.885Z,88.12
2017-09-03T04:00:34.854Z,87.93
2017-09-03T04:01:34.813Z,88.02
2017-09-03T04:02:34.778Z,87.45
2017-09-03T04:03:34.741Z,87.45
2017-09-03T04:04:34.704Z,87.83
2017-09-03T04:05:34.669Z,88.50
2017-09-03T04:06:34.634Z,88.21
2017-09-03T04:07:34.597Z,88.50
2017-09-03T04:08:34.559Z,89.07
2017-09-03T04:09:34.533Z,89.07
2017-09-03T04:10:34.493Z,89.26
2017-09-03T04:11:34.459Z,89.22
2017-09-03T04:12:34.422Z,89.12
2017-09-03T04:13:34.380Z,89.79
2017-09-03T04:14:34.346Z,89.22
2017-09-03T04:15:34.312Z,88.93
2017-09-03T04:16:34.281Z,89.31
2017-09-03T04:17:34.243Z,89.69
2017-09-03T04:18:34.207Z,89.89
2017-09-03T04:19:34.169Z,89.89
2017-09-03T04:20:34.136Z,89.89
2017-09-03T04:21:34.105Z,89.50
2017-09-03T04:22:34.072Z,89.50
2017-09-03T04:23:34.027Z,89.12
2017-09-03T04:24:33.995Z,89.54
2017-09-03T04:25:33.956Z,89.36
2017-09-03T04:26:33.915Z,88.59
2017-09-03T04:27:33.880Z,88.59
2017-09-03T04:28:33.843Z,88.40
2017-09-03T04:29:33.816Z,88.02
2017-09-03T04:30:33.774Z,87.74
2017-09-03T04:31:33.737Z,88.21
2017-09-03T04:32:33.703Z,88.50
2017-09-03T04:33:33.671Z,88.40
2017-09-03T04:34:33.639Z,88.55
2017-09-03T04:35:33.600Z,89.60
2017-09-03T04:36:33.570Z,89.60
2017-09-03T04:37:33.528Z,89.83
2017-09-03T04:38:33.492Z,88.88
2017-09-03T04:39:33.460Z,88.59
2017-09-03T04:40:33.416Z,88.02
2017-09-03T04:41:33.394Z,87.49
2017-09-03T04:42:33.360Z,85.30
2017-09-03T04:43:33.310Z,84.77
2017-09-03T04:44:33.280Z,83.76
2017-09-03T04:45:33.242Z,82.61
2017-09-03T04:46:33.204Z,81.76
2017-09-03T04:47:33.168Z,80.36
2017-09-03T04:48:33.133Z,79.31
2017-09-03T04:49:33.098Z,78.01
2017-09-03T04:50:33.065Z,76.77
2017-09-03T04:51:33.028Z,76.48
2017-09-03T04:52:32.991Z,75.56
2017-09-03T04:53:32.956Z,73.97
2017-09-03T04:54:32.928Z,72.67
2017-09-03T04:55:32.894Z,71.71
2017-09-03T04:56:32.851Z,71.97
2017-09-03T04:57:32.816Z,73.21
2017-09-03T04:58:32.789Z,73.21
2017-09-03T04:59:32.750Z,73.02
2017-09-03T05:00:32.723Z,72.44
2017-09-03T05:01:32.689Z,71.14
2017-09-03T05:02:32.664Z,71.30
2017-09-03T05:03:32.617Z,69.99
2017-09-03T05:04:32.584Z,70.09
2017-09-03T05:05:32.552Z,69.60
2017-09-03T05:06:32.521Z,70.53
2017-09-03T05:07:32.502Z,71.77
2017-09-03T05:08:32.460Z,73.23
2017-09-03T05:09:32.416Z,74.85
2017-09-03T05:10:32.384Z,75.43
2017-09-03T05:11:32.351Z,76.29
2017-09-03T05:12:32.322Z,76.57
2017-09-03T05:13:32.291Z,76.67
2017-09-03T05:14:32.261Z,77.01
2017-09-03T05:15:32.219Z,76.86
2017-09-03T05:16:32.188Z,76.82
2017-09-03T05:17:32.157Z,78.31
2017-09-03T05:18:32.123Z,79.27
2017-09-03T05:19:32.083Z,79.94
2017-09-03T05:20:32.050Z,81.04
2017-09-03T05:21:32.023Z,82.00
2017-09-03T05:22:31.990Z,83.01
2017-09-03T05:23:31.957Z,83.48
2017-09-03T05:24:31.921Z,83.34
2017-09-03T05:25:31.892Z,83.43
2017-09-03T05:26:31.856Z,83.20
2017-09-03T05:27:31.821Z,84.06
2017-09-03T05:28:31.797Z,83.43
2017-09-03T05:29:31.755Z,83.34
2017-09-03T05:30:31.720Z,82.19
2017-09-03T05:31:31.686Z,81.95
2017-09-03T05:32:31.656Z,80.90
2017-09-03T05:33:31.622Z,80.32
2017-09-03T05:34:31.585Z,79.88
2017-09-03T05:35:31.558Z,78.55
2017-09-03T05:36:31.521Z,77.69
2017-09-03T05:37:31.491Z,77.06
2017-09-03T05:38:31.451Z,76.20
2017-09-03T05:39:31.418Z,76.00
2017-09-03T05:40:31.384Z,76.20
2017-09-03T05:41:31.352Z,76.29
2017-09-03T05:42:31.328Z,76.67
2017-09-03T05:43:31.285Z,76.57
2017-09-03T05:44:31.261Z,75.91
2017-09-03T05:45:31.221Z,76.29
2017-09-03T05:46:31.189Z,75.37
2017-09-03T05:47:31.168Z,74.41
2017-09-03T05:48:31.119Z,73.05
2017-09-03T05:49:31.084Z,72.73
2017-09-03T05:50:31.056Z,72.63
2017-09-03T05:51:31.020Z,71.04
2017-09-03T05:52:30.995Z,70.47
2017-09-03T05:53:30.959Z,70.28
2017-09-03T05:54:30.922Z,70.76
2017-09-03T05:55:30.895Z,69.64
2017-09-03T05:56:30.860Z,68.91
2017-09-03T05:57:30.828Z,66.83
2017-09-03T05:58:30.791Z,66.93
2017-09-03T05:59:30.754Z,66.26
2017-09-03T06:00:30.731Z,67.57
2017-09-03T06:01:30.692Z,66.99
2017-09-03T06:02:30.658Z,67.47
2017-09-03T06:03:30.625Z,66.80
2017-09-03T06:04:30.594Z,67.32
2017-09-03T06:05:30.560Z,67.12
2017-09-03T06:06:30.543Z,67.66
2017-09-03T06:07:30.502Z,66.64
2017-09-03T06:08:30.465Z,64.12
2017-09-03T06:09:30.440Z,63.45
2017-09-03T06:10:30.423Z,63.64
2017-09-03T06:11:30.368Z,63.60
2017-09-03T06:12:30.336Z,63.12
2017-09-03T06:13:30.310Z,62.77
2017-09-03T06:14:30.276Z,62.77
2017-09-03T06:15:30.251Z,62.42
2017-09-03T06:16:30.211Z,63.16
2017-09-03T06:17:30.182Z,62.04
2017-09-03T06:18:30.149Z,63.54
2017-09-03T06:19:30.126Z,63.51
2017-09-03T06:20:30.090Z,63.83
2017-09-03T06:21:30.059Z,62.32
2017-09-03T06:22:30.032Z,60.43
2017-09-03T06:23:29.998Z,63.45
2017-09-03T06:24:29.984Z,63.35
2017-09-03T06:25:29.941Z,62.90
2017-09-03T06:26:29.911Z,64.69
2017-09-03T06:27:29.880Z,67.50
2017-09-03T06:28:29.849Z,67.50
2017-09-03T06:29:29.819Z,69.26
2017-09-03T06:30:29.785Z,70.35
2017-09-03T06:31:29.756Z,69.13
2017-09-03T06:32:29.723Z,70.03
2017-09-03T06:33:29.691Z,71.66
2017-09-03T06:34:29.666Z,71.37
2017-09-03T06:35:29.634Z,70.25
2017-09-03T06:36:29.656Z,68.95
2017-09-03T06:37:29.573Z,71.27
2017-09-03T06:38:29.549Z,72.23
2017-09-03T06:39:29.513Z,71.56
2017-09-03T06:40:29.481Z,71.81
2017-09-03T06:41:29.453Z,72.52
2017-09-03T06:42:29.422Z,71.84
2017-09-03T06:43:29.390Z,70.35
2017-09-03T06:44:29.357Z,69.65
2017-09-03T06:45:29.331Z,68.91
2017-09-03T06:46:29.295Z,70.64
2017-09-03T06:47:29.271Z,70.64
2017-09-03T06:48:29.235Z,71.56
2017-09-03T06:49:29.211Z,73.28
2017-09-03T06:50:29.174Z,73.24
2017-09-03T06:51:29.145Z,73.82
2017-09-03T06:52:29.122Z,74.40
2017-09-03T06:53:29.089Z,73.95
2017-09-03T06:54:29.061Z,72.80
2017-09-03T06:55:29.018Z,73.19
2017-09-03T06:56:28.992Z,72.03
2017-09-03T06:57:28.963Z,72.42
2017-09-03T06:58:28.930Z,72.32
2017-09-03T06:59:28.899Z,73.44
2017-09-03T07:00:28.875Z,74.24
2017-09-03T07:01:28.839Z,72.52
2017-09-03T07:02:28.808Z,71.66
2017-09-03T07:03:28.779Z,72.96
2017-09-03T07:04:28.752Z,74.45
2017-09-03T07:05:28.716Z,75.98
2017-09-03T07:06:28.678Z,75.89
2017-09-03T07:07:28.658Z,77.04
2017-09-03T07:08:28.628Z,76.94
2017-09-03T07:09:28.595Z,76.65
2017-09-03T07:10:28.558Z,75.64
2017-09-03T07:11:28.525Z,75.35
2017-09-03T07:12:28.504Z,75.54
2017-09-03T07:13:28.472Z,74.68
2017-09-03T07:14:28.438Z,74.15
2017-09-03T07:15:28.427Z,73.66
2017-09-03T07:16:28.377Z,73.09
2017-09-03T07:17:28.345Z,72.61
2017-09-03T07:18:28.317Z,73.95
2017-09-03T07:19:28.284Z,73.44
2017-09-03T07:20:28.252Z,74.11
2017-09-03T07:21:28.220Z,74.68
2017-09-03T07:22:28.184Z,74.30
2017-09-03T07:23:28.169Z,73.66
2017-09-03T07:24:28.130Z,74.58
2017-09-03T07:25:28.095Z,74.40
2017-09-03T07:26:28.066Z,73.86
2017-09-03T07:27:28.035Z,73.54
2017-09-03T07:28:28.006Z,73.19
2017-09-03T07:29:27.973Z,72.23
2017-09-03T07:30:27.944Z,73.22
2017-09-03T07:31:27.911Z,73.57
2017-09-03T07:32:27.876Z,73.47
2017-09-03T07:33:27.846Z,73.09
2017-09-03T07:34:27.814Z,73.47
2017-09-03T07:35:27.809Z,73.19
2017-09-03T07:36:27.760Z,73.19
2017-09-03T07:37:27.727Z,72.52
2017-09-03T07:38:27.700Z,71.75
2017-09-03T07:39:27.666Z,72.64
2017-09-03T07:40:27.640Z,72.90
2017-09-03T07:41:27.606Z,73.47
2017-09-03T07:42:27.578Z,74.40
2017-09-03T07:43:27.542Z,74.68
2017-09-03T07:44:27.508Z,75.64
2017-09-03T07:45:27.476Z,75.07
2017-09-03T07:46:27.463Z,74.87
2017-09-03T07:47:27.427Z,75.45
2017-09-03T07:48:27.405Z,75.45
2017-09-03T07:49:27.365Z,75.45
2017-09-03T07:50:27.328Z,74.87
2017-09-03T07:51:27.291Z,75.51
2017-09-03T07:52:27.307Z,75.16
2017-09-03T07:53:27.242Z,75.64
2017-09-03T07:54:27.196Z,75.26
2017-09-03T07:55:27.172Z,75.64
2017-09-03T07:56:27.153Z,75.64
2017-09-03T07:57:27.110Z,75.89
2017-09-03T07:58:27.073Z,75.26
2017-09-03T07:59:27.040Z,74.84
2017-09-03T08:00:27.005Z,76.18
2017-09-03T08:01:26.991Z,76.37
2017-09-03T08:02:26.959Z,75.98
2017-09-03T08:03:26.918Z,76.02
2017-09-03T08:04:26.883Z,74.68
2017-09-03T08:05:26.852Z,74.77
2017-09-03T08:06:26.820Z,74.20
2017-09-03T08:07:26.788Z,74.11
2017-09-03T08:08:26.761Z,74.30
2017-09-03T08:09:26.729Z,74.52
2017-09-03T08:10:26.699Z,74.33
2017-09-03T08:11:26.663Z,74.15
2017-09-03T08:12:26.630Z,74.33
2017-09-03T08:13:26.604Z,74.49
2017-09-03T08:14:26.583Z,74.87
2017-09-03T08:15:26.533Z,74.52
2017-09-03T08:16:26.500Z,74.33
2017-09-03T08:17:26.477Z,72.61
2017-09-03T08:18:26.441Z,72.45
2017-09-03T08:19:26.419Z,71.75
2017-09-03T08:20:26.382Z,71.31
2017-09-03T08:21:26.406Z,71.40
2017-09-03T08:22:26.311Z,71.40
2017-09-03T08:23:26.284Z,71.31
2017-09-03T08:24:26.244Z,71.69
2017-09-03T08:25:26.213Z,71.50
2017-09-03T08:26:26.189Z,71.11
2017-09-03T08:27:26.157Z,70.54
2017-09-03T08:28:26.119Z,70.35
2017-09-03T08:29:26.091Z,70.64
2017-09-03T08:30:26.063Z,70.54
2017-09-03T08:31:26.033Z,70.25
2017-09-03T08:32:25.999Z,70.83
2017-09-03T08:33:25.975Z,70.44
2017-09-03T08:34:25.933Z,70.15
2017-09-03T08:35:25.905Z,70.00
2017-09-03T08:36:25.873Z,68.85
2017-09-03T08:37:25.842Z,68.95
2017-09-03T08:38:25.811Z,68.98
2017-09-03T08:39:25.781Z,68.66
2017-09-03T08:40:25.743Z,68.85
2017-09-03T08:41:25.724Z,68.40
2017-09-03T08:42:25.686Z,68.66
2017-09-03T08:43:25.658Z,68.95
2017-09-03T08:44:25.620Z,68.40
2017-09-03T08:45:25.596Z,67.89
2017-09-03T08:46:25.554Z,68.02
2017-09-03T08:47:25.523Z,67.54
2017-09-03T08:48:25.491Z,67.73
2017-09-03T08:49:25.466Z,66.77
2017-09-03T08:50:25.432Z,67.35
2017-09-03T08:51:25.405Z,66.29
2017-09-03T08:52:25.380Z,66.77
2017-09-03T08:53:25.342Z,66.67
2017-09-03T08:54:25.321Z,66.96
2017-09-03T08:55:25.278Z,66.96
2017-09-03T08:56:25.252Z,66.96
2017-09-03T08:57:25.224Z,67.54
2017-09-03T08:58:25.193Z,67.06
2017-09-03T08:59:25.155Z,67.16
2017-09-03T09:00:25.128Z,66.19
2017-09-03T09:01:25.096Z,66.10
2017-09-03T09:02:25.065Z,66.39
2017-09-03T09:03:25.037Z,66.19
2017-09-03T09:04:25.004Z,65.62
2017-09-03T09:05:24.972Z,65.52
2017-09-03T09:06:24.942Z,64.95
2017-09-03T09:07:24.913Z,64.47
2017-09-03T09:08:24.880Z,64.28
2017-09-03T09:09:24.849Z,63.89
2017-09-03T09:10:24.816Z,63.92
2017-09-03T09:11:24.787Z,63.54
2017-09-03T09:12:24.753Z,63.38
2017-09-03T09:13:24.722Z,62.29
2017-09-03T09:14:24.692Z,62.42
2017-09-03T09:15:24.697Z,62.29
2017-09-03T09:16:24.662Z,62.19
2017-09-03T09:17:24.611Z,62.77
2017-09-03T09:18:24.577Z,62.39
2017-09-03T09:19:24.544Z,62.39
2017-09-03T09:20:24.515Z,62.04
2017-09-03T09:21:24.487Z,61.36
2017-09-03T09:22:24.449Z,60.69
2017-09-03T09:23:24.422Z,61.08
2017-09-03T09:24:24.390Z,60.95
2017-09-03T09:25:24.357Z,62.29
2017-09-03T09:26:24.328Z,62.68
2017-09-03T09:27:24.303Z,61.81
2017-09-03T09:28:24.279Z,62.10
2017-09-03T09:29:24.247Z,62.58
2017-09-03T09:30:24.208Z,62.81
2017-09-03T09:31:24.186Z,62.77
2017-09-03T09:32:24.161Z,63.64
2017-09-03T09:33:24.122Z,64.09
2017-09-03T09:34:24.090Z,63.79
2017-09-03T09:35:24.061Z,62.19
2017-09-03T09:36:24.026Z,61.81
2017-09-03T09:37:24.004Z,62.39
2017-09-03T09:38:23.971Z,62.16
2017-09-03T09:39:23.949Z,62.48
2017-09-03T09:40:23.932Z,62.10
2017-09-03T09:41:23.884Z,60.98
2017-09-03T09:42:23.856Z,61.27
2017-09-03T09:43:23.818Z,60.69
2017-09-03T09:44:23.789Z,60.66
2017-09-03T09:45:23.769Z,60.18
2017-09-03T09:46:23.731Z,60.85
2017-09-03T09:47:23.701Z,60.95
2017-09-03T09:48:23.670Z,61.33
2017-09-03T09:49:23.675Z,61.05
2017-09-03T09:50:23.607Z,61.43
2017-09-03T09:51:23.583Z,62.01
2017-09-03T09:52:23.556Z,61.55
2017-09-03T09:53:23.522Z,60.31
2017-09-03T09:54:23.487Z,59.73
2017-09-03T09:55:23.495Z,59.64
2017-09-03T09:56:23.426Z,60.40
2017-09-03T09:57:23.398Z,60.21
2017-09-03T09:58:23.451Z,59.16
2017-09-03T09:59:23.351Z,59.34
2017-09-03T10:00:23.309Z,60.57
2017-09-03T10:01:23.285Z,61.14
2017-09-03T10:02:23.252Z,60.66
2017-09-03T10:03:23.235Z,60.40
2017-09-03T10:04:23.365Z,60.40
2017-09-03T10:05:23.159Z,60.95
2017-09-03T10:06:23.128Z,61.33
2017-09-03T10:07:23.112Z,60.66
2017-09-03T10:08:23.078Z,60.47
2017-09-03T10:09:23.048Z,61.24
2017-09-03T10:10:23.011Z,60.28
2017-09-03T10:11:22.985Z,60.47
2017-09-03T10:12:22.955Z,60.18
2017-09-03T10:13:22.920Z,59.92
2017-09-03T10:14:22.892Z,60.11
2017-09-03T10:15:22.868Z,60.28
2017-09-03T10:16:22.829Z,61.24
2017-09-03T10:17:22.804Z,60.40
2017-09-03T10:18:22.775Z,60.31
2017-09-03T10:19:22.741Z,60.11
2017-09-03T10:20:22.712Z,59.19
2017-09-03T10:21:22.693Z,58.99
2017-09-03T10:22:22.651Z,58.45
2017-09-03T10:23:22.621Z,58.13
2017-09-03T10:24:22.602Z,57.65
2017-09-03T10:25:22.565Z,57.65
2017-09-03T10:26:22.533Z,58.58
2017-09-03T10:27:22.509Z,58.96
2017-09-03T10:28:22.471Z,59.19
2017-09-03T10:29:22.443Z,59.38
2017-09-03T10:30:22.416Z,59.64
2017-09-03T10:31:22.387Z,60.69
2017-09-03T10:32:22.354Z,65.91
2017-09-03T10:33:22.324Z,71.63
2017-09-03T10:34:22.290Z,73.22
2017-09-03T10:35:22.268Z,73.95
2017-09-03T10:36:22.231Z,79.32
2017-09-03T10:37:22.202Z,81.86
2017-09-03T10:38:22.183Z,83.20
2017-09-03T10:39:22.150Z,81.57
2017-09-03T10:40:22.110Z,83.97
2017-09-03T10:41:22.078Z,81.86
2017-09-03T10:42:22.052Z,85.50
2017-09-03T10:43:22.044Z,80.71
2017-09-03T10:44:21.983Z,82.92
2017-09-03T10:45:21.984Z,80.77
2017-09-03T10:46:21.918Z,81.86
2017-09-03T10:47:21.904Z,81.86
2017-09-03T10:48:21.865Z,83.11
2017-09-03T10:49:21.825Z,85.50
2017-09-03T10:50:21.805Z,85.50
2017-09-03T10:51:21.767Z,86.46
2017-09-03T10:52:21.730Z,89.33
2017-09-03T10:53:21.701Z,89.23
2017-09-03T10:54:21.665Z,92.06
2017-09-03T10:55:21.633Z,93.02
2017-09-03T10:56:21.606Z,93.49
2017-09-03T10:57:21.571Z,93.02
2017-09-03T10:58:21.540Z,91.43
2017-09-03T10:59:21.502Z,90.76
2017-09-03T11:00:21.475Z,92.10
2017-09-03T11:01:21.438Z,90.76
2017-09-03T11:02:21.415Z,90.47
2017-09-03T11:03:21.371Z,91.05
2017-09-03T11:04:21.369Z,91.05
2017-09-03T11:05:21.318Z,91.38
2017-09-03T11:06:21.281Z,90.81
2017-09-03T11:07:21.248Z,89.75
2017-09-03T11:08:21.214Z,90.42
2017-09-03T11:09:21.180Z,90.47
2017-09-03T11:10:21.223Z,89.42
2017-09-03T11:11:21.139Z,88.75
2017-09-03T11:12:21.089Z,88.46
2017-09-03T11:13:21.056Z,87.88
2017-09-03T11:14:21.025Z,88.46
2017-09-03T11:15:20.991Z,85.64
2017-09-03T11:16:20.956Z,83.53
2017-09-03T11:17:20.929Z,82.48
2017-09-03T11:18:20.899Z,78.27
2017-09-03T11:19:20.865Z,81.23
2017-09-03T11:20:20.854Z,80.76
2017-09-03T11:21:20.804Z,82.09
2017-09-03T11:22:20.775Z,80.18
2017-09-03T11:23:20.760Z,77.88
2017-09-03T11:24:20.715Z,76.73
2017-09-03T11:25:20.676Z,75.87
2017-09-03T11:26:20.640Z,79.93
2017-09-03T11:27:20.615Z,78.59
2017-09-03T11:28:20.592Z,83.67
2017-09-03T11:29:20.553Z,81.46
2017-09-03T11:30:20.517Z,81.51
2017-09-03T11:31:20.482Z,84.28
2017-09-03T11:32:20.450Z,78.05
2017-09-03T11:33:20.423Z,79.11
2017-09-03T11:34:20.400Z,75.95
2017-09-03T11:35:20.360Z,76.81
2017-09-03T11:36:20.333Z,76.94
2017-09-03T11:37:20.289Z,74.06
2017-09-03T11:38:20.265Z,73.39
2017-09-03T11:39:20.225Z,70.03
2017-09-03T11:40:20.195Z,70.86
2017-09-03T11:41:20.160Z,66.86
2017-09-03T11:42:20.150Z,67.73
2017-09-03T11:43:20.108Z,65.33
2017-09-03T11:44:20.071Z,64.76
2017-09-03T11:45:20.041Z,66.00
2017-09-03T11:46:20.012Z,63.51
2017-09-03T11:47:19.971Z,63.60
2017-09-03T11:48:19.942Z,65.23
2017-09-03T11:49:19.914Z,65.56
2017-09-03T11:50:19.882Z,65.75
2017-09-03T11:51:19.850Z,65.33
2017-09-03T11:52:19.825Z,65.27
2017-09-03T11:53:19.792Z,64.69
2017-09-03T11:54:19.751Z,63.35
2017-09-03T11:55:19.731Z,61.72
2017-09-03T11:56:19.694Z,64.40
2017-09-03T11:57:19.665Z,63.64
2017-09-03T11:58:19.631Z,63.38
2017-09-03T11:59:19.606Z,64.72
2017-09-03T12:00:19.590Z,62.61
2017-09-03T12:01:19.545Z,62.71
2017-09-03T12:02:19.519Z,62.42
2017-09-03T12:03:19.482Z,63.38
2017-09-03T12:04:19.441Z,62.35
2017-09-03T12:05:19.414Z,63.99
2017-09-03T12:06:19.383Z,65.62
2017-09-03T12:07:19.357Z,61.97
2017-09-03T12:08:19.331Z,60.88
2017-09-03T12:09:19.291Z,57.62
2017-09-03T12:10:19.264Z,57.23
2017-09-03T12:11:19.232Z,56.76
2017-09-03T12:12:19.210Z,55.60
2017-09-03T12:13:19.165Z,54.74
2017-09-03T12:14:19.145Z,55.22
2017-09-03T12:15:19.119Z,54.93
2017-09-03T12:16:19.078Z,56.27
2017-09-03T12:17:19.044Z,58.80
2017-09-03T12:18:19.022Z,55.91
2017-09-03T12:19:18.993Z,54.77
2017-09-03T12:20:18.958Z,54.38
2017-09-03T12:21:18.923Z,55.73
2017-09-03T12:22:18.895Z,59.50
2017-09-03T12:23:18.865Z,56.98
2017-09-03T12:24:18.833Z,57.68
2017-09-03T12:25:18.824Z,55.05
2017-09-03T12:26:18.767Z,55.44
2017-09-03T12:27:18.742Z,54.86
2017-09-03T12:28:18.721Z,55.44
2017-09-03T12:29:18.688Z,56.11
2017-09-03T12:30:18.647Z,57.26
2017-09-03T12:31:18.632Z,57.29
2017-09-03T12:32:18.618Z,56.23
2017-09-03T12:33:18.561Z,55.85
2017-09-03T12:34:18.527Z,54.60
2017-09-03T12:35:18.505Z,55.11
2017-09-03T12:36:18.483Z,55.98
2017-09-03T12:37:18.481Z,52.70
2017-09-03T12:38:18.417Z,50.97
2017-09-03T12:39:18.379Z,51.45
2017-09-03T12:40:18.350Z,52.99
2017-09-03T12:41:18.318Z,51.74
2017-09-03T12:42:18.295Z,52.03
2017-09-03T12:43:18.302Z,52.12
2017-09-03T12:44:18.230Z,51.55
2017-09-03T12:45:18.192Z,52.39
2017-09-03T12:46:18.165Z,54.14
2017-09-03T12:47:18.139Z,54.24
2017-09-03T12:48:18.121Z,54.02
2017-09-03T12:49:18.079Z,53.83
2017-09-03T12:50:18.062Z,54.24
2017-09-03T12:51:18.031Z,52.39
2017-09-03T12:52:17.986Z,52.58